Terminal Aerodrome Forecast
Issued by NWS Sioux Falls, SD

Home | Current Version | Previous Version | Graphics & Text | Print | Product List | Glossary On
Versions: 1 2 3 4 5 6 7 8 9 10 11 12
000
FTUS43 KFSD 072300
TAFHON
TAF
KHON 072327Z 0800/0824 33012G18KT P6SM SCT060 SCT110
     FM080400 32008KT P6SM FEW060
     FM081500 33015G22KT P6SM SCT040
     FM081800 33016G23KT P6SM BKN045=

USA.gov is the U.S. government's official web portal to all federal, state and local government web resources and services.